Spring Lake, Michigan
Current Conditions -  °F | °C
As of 3:55 AM on Sunday 21 Dec 2014 (Local Time) from KMKG Reporting Station
Haze Haze  
Wind Chill: 27°   Ceiling: 1600
Heat Index: 32°   Visibility: 5mi
Dew Point: 28°   Wind: 5mph
Humidity: 85%   Direction: 130°SE
Pressure: 30.25"   Gusts: NA
Location:  43.08°N, 86.2°W
Report Text: KMKG 210855Z AUTO 13004KT 5SM BR OVC016 00/M02 A3025 RMK AO2 UPB31E44 SLP251 P0000 60000 T00001022 50002
Loading
Personal Weather Stations






























Interactive Weather Map New forecast layout! Learn more

10-Day Weather Forecast

Advertisements
Track Severe Weather on mobile